San Dimas, California
Current Conditions -  °F | °C
As of 8:53 AM on Thursday 27 Nov 2014 (Local Time) from KONT Reporting Station
Broken Clouds Broken Clouds  
Wind Chill: 70°   Ceiling: 25000
Heat Index: 70°   Visibility: 10mi
Dew Point: 28°   Wind: 0mph
Humidity: 21%   Direction: NA
Pressure: 30.15"   Gusts: NA
Location:  34.11°N, 117.8°W
Report Text: KONT 271653Z 00000KT 10SM BKN250 21/M02 A3015 RMK AO2 SLP202 T02111022
Loading
Personal Weather Stations






























Interactive Weather Map New forecast layout! Learn more

10-Day Weather Forecast

Advertisements
Track Severe Weather on mobile